Time;durP1;ratioP1;P1;durP2;ratioP2;P2;SDS_P1;SDS_P2;PMS_P1;PMS_P2;Temp;Humidity;BMP_temperature;BMP_pressure;BME280_temperature;BME280_humidity;BME280_pressure;Samples;Min_cycle;Max_cycle;Signal;HPM_P1;HPM_P2
2023/03/02 00:00:56;;;;;;;24.65;16.08;;;;;;;;;;6069376;23;20014;-90
2023/03/02 00:03:25;;;;;;;25.17;17.27;;;;;;;;;;6117016;23;20537;-89
2023/03/02 00:05:56;;;;;;;28.65;16.50;;;;;;;;;;6070269;23;20026;-90
2023/03/02 00:08:24;;;;;;;23.15;16.02;;;;;;;;;;6093416;23;20022;-90
2023/03/02 00:10:53;;;;;;;23.17;15.10;;;;;;;;;;6092580;23;20018;-90
2023/03/02 00:13:21;;;;;;;26.17;18.13;;;;;;;;;;6070194;23;20018;-91
2023/03/02 00:15:48;;;;;;;28.15;18.05;;;;;;;;;;6093634;23;20021;-90
2023/03/02 00:18:16;;;;;;;26.40;18.42;;;;;;;;;;6069373;23;20029;-91
2023/03/02 00:20:45;;;;;;;31.20;19.23;;;;;;;;;;6068919;23;20018;-91
2023/03/02 00:23:12;;;;;;;27.08;18.23;;;;;;;;;;6069203;23;20034;-91
2023/03/02 00:25:40;;;;;;;37.22;18.45;;;;;;;;;;6045989;23;20462;-91
2023/03/02 00:28:07;;;;;;;28.35;18.05;;;;;;;;;;6070799;23;20022;-91
2023/03/02 00:30:34;;;;;;;27.38;18.17;;;;;;;;;;6068790;23;20018;-91
2023/03/02 00:33:04;;;;;;;29.45;18.08;;;;;;;;;;6070168;23;20018;-92
2023/03/02 00:35:37;;;;;;;24.98;16.52;;;;;;;;;;6069173;23;20026;-91
2023/03/02 00:38:06;;;;;;;25.25;18.17;;;;;;;;;;6070214;23;20029;-91
2023/03/02 00:40:33;;;;;;;20.08;16.20;;;;;;;;;;6068811;23;20022;-91
2023/03/02 00:43:01;;;;;;;21.08;16.35;;;;;;;;;;6069785;23;20018;-91
2023/03/02 00:45:28;;;;;;;26.42;18.08;;;;;;;;;;6068860;23;20041;-90
2023/03/02 00:47:56;;;;;;;25.75;17.67;;;;;;;;;;6093752;23;20022;-91
2023/03/02 00:50:25;;;;;;;30.85;17.13;;;;;;;;;;6068293;23;20026;-91
2023/03/02 00:52:53;;;;;;;23.70;16.65;;;;;;;;;;6070733;23;20018;-90
2023/03/02 00:55:22;;;;;;;28.70;17.73;;;;;;;;;;6070081;23;20030;-91
2023/03/02 00:57:53;;;;;;;25.48;18.23;;;;;;;;;;6071503;23;20481;-91
2023/03/02 01:00:26;;;;;;;31.70;19.20;;;;;;;;;;6070334;23;20018;-90
2023/03/02 01:02:55;;;;;;;25.10;18.80;;;;;;;;;;6071292;23;20018;-91
2023/03/02 01:05:23;;;;;;;25.08;18.67;;;;;;;;;;6093507;23;20030;-91
2023/03/02 01:07:51;;;;;;;27.30;17.73;;;;;;;;;;6071525;23;20025;-91
2023/03/02 01:10:19;;;;;;;23.17;17.00;;;;;;;;;;6070782;23;20202;-90
2023/03/02 01:12:47;;;;;;;25.75;17.88;;;;;;;;;;6070964;23;20022;-90
2023/03/02 01:15:15;;;;;;;24.88;17.58;;;;;;;;;;6071572;23;20359;-90
2023/03/02 01:17:43;;;;;;;25.38;16.83;;;;;;;;;;6071189;23;20014;-91
2023/03/02 01:20:11;;;;;;;27.50;18.08;;;;;;;;;;6071492;23;20496;-90
2023/03/02 01:22:42;;;;;;;29.08;19.83;;;;;;;;;;6072352;23;20071;-91
2023/03/02 01:25:10;;;;;;;27.25;17.10;;;;;;;;;;6071736;23;20030;-90
2023/03/02 01:27:37;;;;;;;29.88;17.85;;;;;;;;;;6084241;23;20010;-90
2023/03/02 01:30:08;;;;;;;27.02;17.40;;;;;;;;;;6099107;23;20062;-91
2023/03/02 01:32:37;;;;;;;25.98;19.63;;;;;;;;;;6098532;23;20014;-91
2023/03/02 01:35:05;;;;;;;26.67;20.20;;;;;;;;;;6099075;23;20066;-91
2023/03/02 01:37:33;;;;;;;25.65;17.65;;;;;;;;;;6099549;23;20070;-91
2023/03/02 01:40:05;;;;;;;29.17;19.25;;;;;;;;;;6098682;23;20066;-91
2023/03/02 01:42:35;;;;;;;21.00;15.35;;;;;;;;;;6097710;23;20058;-91
2023/03/02 01:45:02;;;;;;;27.42;17.40;;;;;;;;;;6098912;23;20057;-90
2023/03/02 01:47:33;;;;;;;26.50;16.70;;;;;;;;;;6099040;23;20078;-91
2023/03/02 01:50:19;;;;;;;27.88;17.80;;;;;;;;;;6098502;23;20276;-91
2023/03/02 01:52:47;;;;;;;27.98;16.08;;;;;;;;;;6098256;23;20142;-90
2023/03/02 01:55:19;;;;;;;25.58;17.38;;;;;;;;;;6098040;23;20078;-91
2023/03/02 01:57:50;;;;;;;28.45;18.35;;;;;;;;;;6099294;23;20062;-90
2023/03/02 02:00:20;;;;;;;28.02;17.65;;;;;;;;;;6090826;23;20018;-91
2023/03/02 02:02:49;;;;;;;27.33;17.42;;;;;;;;;;6093540;23;20461;-90
2023/03/02 02:05:19;;;;;;;23.40;15.18;;;;;;;;;;6068832;23;20460;-91
2023/03/02 02:07:47;;;;;;;25.77;16.05;;;;;;;;;;6071357;23;20032;-90
2023/03/02 02:10:16;;;;;;;23.30;15.77;;;;;;;;;;6067451;23;20022;-91
2023/03/02 02:12:43;;;;;;;27.27;16.17;;;;;;;;;;6067481;23;20018;-90
2023/03/02 02:15:11;;;;;;;26.05;20.05;;;;;;;;;;6068486;23;20022;-90
2023/03/02 02:17:40;;;;;;;29.00;18.05;;;;;;;;;;6069255;23;20018;-90
2023/03/02 02:20:23;;;;;;;22.85;18.17;;;;;;;;;;6067964;23;20033;-90
2023/03/02 02:23:02;;;;;;;31.73;19.17;;;;;;;;;;6103125;23;20550;-90
2023/03/02 02:25:40;;;;;;;23.38;18.48;;;;;;;;;;6067147;23;20077;-90
2023/03/02 02:28:14;;;;;;;24.27;16.50;;;;;;;;;;6068620;23;20018;-91
2023/03/02 02:30:42;;;;;;;26.45;20.02;;;;;;;;;;6066823;23;20041;-90
2023/03/02 02:33:15;;;;;;;26.67;18.30;;;;;;;;;;6068620;23;20029;-90
2023/03/02 02:35:42;;;;;;;25.77;17.25;;;;;;;;;;6100671;23;20417;-90
2023/03/02 02:38:11;;;;;;;25.33;18.30;;;;;;;;;;6067855;23;20022;-89
2023/03/02 02:40:44;;;;;;;26.52;19.77;;;;;;;;;;6065236;23;20500;-90
2023/03/02 02:43:18;;;;;;;25.33;20.08;;;;;;;;;;6068933;23;20500;-91
2023/03/02 02:45:46;;;;;;;26.08;18.38;;;;;;;;;;6068684;23;20022;-90
2023/03/02 02:48:15;;;;;;;21.58;17.48;;;;;;;;;;6069212;23;20626;-90
2023/03/02 02:50:44;;;;;;;22.88;17.38;;;;;;;;;;6068222;23;20068;-90
2023/03/02 02:53:15;;;;;;;29.70;19.30;;;;;;;;;;6091029;23;20390;-90
2023/03/02 02:55:44;;;;;;;31.23;19.00;;;;;;;;;;6067862;23;20033;-90
2023/03/02 02:58:25;;;;;;;26.00;17.08;;;;;;;;;;6068382;23;20470;-90
2023/03/02 03:00:54;;;;;;;26.50;19.90;;;;;;;;;;6067962;23;20026;-90
2023/03/02 03:03:29;;;;;;;22.65;16.25;;;;;;;;;;6067349;23;20018;-90
2023/03/02 03:06:01;;;;;;;29.38;20.45;;;;;;;;;;6068112;23;20014;-90
2023/03/02 03:08:58;;;;;;;32.03;16.15;;;;;;;;;;6068059;23;20029;-90
2023/03/02 03:11:40;;;;;;;24.25;18.15;;;;;;;;;;6067642;23;20019;-90
2023/03/02 03:14:11;;;;;;;30.45;19.17;;;;;;;;;;6067893;23;20022;-90
2023/03/02 03:16:40;;;;;;;25.85;16.77;;;;;;;;;;6067258;23;20019;-90
2023/03/02 03:19:13;;;;;;;29.48;18.85;;;;;;;;;;6069391;23;20339;-90
2023/03/02 03:21:41;;;;;;;30.53;21.33;;;;;;;;;;6067997;23;20025;-91
2023/03/02 03:24:09;;;;;;;30.15;17.75;;;;;;;;;;6091448;23;20029;-90
2023/03/02 03:26:37;;;;;;;28.33;20.30;;;;;;;;;;6091792;23;20026;-90
2023/03/02 03:29:04;;;;;;;27.98;17.65;;;;;;;;;;6094266;23;20018;-90
2023/03/02 03:31:34;;;;;;;30.58;18.48;;;;;;;;;;6070399;23;20458;-90
2023/03/02 03:34:02;;;;;;;23.95;18.02;;;;;;;;;;6069994;23;20025;-90
2023/03/02 03:36:34;;;;;;;24.02;17.73;;;;;;;;;;6069166;23;20026;-90
2023/03/02 03:39:04;;;;;;;28.30;18.45;;;;;;;;;;6070820;23;20015;-90
2023/03/02 03:41:32;;;;;;;23.67;17.30;;;;;;;;;;6069676;23;20018;-90
2023/03/02 03:44:00;;;;;;;23.95;19.48;;;;;;;;;;6070557;23;20019;-90
2023/03/02 03:46:30;;;;;;;30.20;17.75;;;;;;;;;;6068023;23;20018;-90
2023/03/02 03:48:59;;;;;;;24.33;15.13;;;;;;;;;;6070616;23;20023;-91
2023/03/02 03:51:27;;;;;;;25.88;17.38;;;;;;;;;;6069836;23;20019;-90
2023/03/02 03:53:59;;;;;;;29.75;19.08;;;;;;;;;;6071094;23;20462;-90
2023/03/02 03:56:35;;;;;;;22.95;18.80;;;;;;;;;;6070557;23;20335;-90
2023/03/02 03:59:06;;;;;;;27.65;17.90;;;;;;;;;;6106058;23;20011;-90
2023/03/02 04:01:38;;;;;;;22.60;17.60;;;;;;;;;;6068826;23;20022;-90
2023/03/02 04:04:13;;;;;;;22.48;15.73;;;;;;;;;;6071993;23;20018;-90
2023/03/02 04:06:41;;;;;;;22.20;17.02;;;;;;;;;;6069936;23;20022;-90
2023/03/02 04:09:08;;;;;;;25.33;16.27;;;;;;;;;;6070748;23;20029;-90
2023/03/02 04:11:47;;;;;;;24.95;17.73;;;;;;;;;;6096239;23;20014;-90
2023/03/02 04:14:16;;;;;;;29.08;18.67;;;;;;;;;;6071528;23;20018;-90
2023/03/02 04:16:44;;;;;;;33.20;18.00;;;;;;;;;;6096170;23;20019;-89
2023/03/02 04:19:16;;;;;;;28.48;18.10;;;;;;;;;;6070834;23;20019;-90
2023/03/02 04:21:45;;;;;;;26.13;18.63;;;;;;;;;;6071908;23;20018;-89
2023/03/02 04:24:17;;;;;;;23.63;16.92;;;;;;;;;;6073030;23;20022;-89
2023/03/02 04:26:45;;;;;;;25.95;17.48;;;;;;;;;;6106578;23;20026;-90
2023/03/02 04:29:14;;;;;;;25.27;17.25;;;;;;;;;;6073098;23;20022;-88
2023/03/02 04:31:41;;;;;;;24.40;18.38;;;;;;;;;;6067830;23;20022;-89
2023/03/02 04:34:09;;;;;;;22.33;17.25;;;;;;;;;;6069691;23;20025;-92
2023/03/02 04:36:41;;;;;;;23.60;17.23;;;;;;;;;;6069579;23;20034;-90
2023/03/02 04:39:13;;;;;;;24.05;18.50;;;;;;;;;;6069504;23;20018;-90
2023/03/02 04:41:41;;;;;;;23.67;16.92;;;;;;;;;;6090042;23;20018;-90
2023/03/02 04:44:12;;;;;;;27.00;19.23;;;;;;;;;;6068899;23;20026;-90
2023/03/02 04:46:39;;;;;;;24.52;16.20;;;;;;;;;;6069164;23;20029;-90
2023/03/02 04:49:07;;;;;;;26.08;16.90;;;;;;;;;;6069410;23;20370;-91
2023/03/02 04:51:37;;;;;;;20.00;14.98;;;;;;;;;;6067355;23;20027;-92
2023/03/02 04:54:14;;;;;;;20.25;16.05;;;;;;;;;;6069637;23;20019;-91
2023/03/02 04:56:41;;;;;;;24.27;17.90;;;;;;;;;;6093518;23;20029;-91
2023/03/02 04:59:08;;;;;;;30.85;19.05;;;;;;;;;;6069824;23;20022;-91
2023/03/02 05:01:36;;;;;;;23.30;18.70;;;;;;;;;;6069367;23;20035;-91
2023/03/02 05:04:04;;;;;;;25.15;17.95;;;;;;;;;;6092804;23;20021;-91
2023/03/02 05:06:31;;;;;;;22.65;17.67;;;;;;;;;;6069598;23;20019;-90
2023/03/02 05:09:03;;;;;;;26.48;16.35;;;;;;;;;;6068805;23;20021;-91
2023/03/02 05:11:35;;;;;;;23.60;17.77;;;;;;;;;;6069717;23;20018;-91
2023/03/02 05:14:05;;;;;;;23.67;15.43;;;;;;;;;;6092472;23;20386;-90
2023/03/02 05:16:37;;;;;;;22.98;16.83;;;;;;;;;;6069217;23;20025;-90
2023/03/02 05:19:07;;;;;;;24.02;17.58;;;;;;;;;;6095357;23;20021;-91
2023/03/02 05:21:35;;;;;;;24.02;18.55;;;;;;;;;;6091807;23;20033;-90
2023/03/02 05:24:03;;;;;;;25.75;18.40;;;;;;;;;;6068852;23;20018;-91
2023/03/02 05:26:33;;;;;;;26.20;15.30;;;;;;;;;;6069206;23;20023;-89
2023/03/02 05:29:04;;;;;;;24.50;16.05;;;;;;;;;;6065076;23;20022;-90
2023/03/02 05:31:34;;;;;;;23.65;15.32;;;;;;;;;;6067949;23;20030;-89
2023/03/02 05:34:02;;;;;;;26.60;16.17;;;;;;;;;;6093713;23;20020;-90
2023/03/02 05:36:34;;;;;;;20.73;15.40;;;;;;;;;;6066918;23;20014;-89
2023/03/02 05:39:02;;;;;;;26.95;17.67;;;;;;;;;;6064569;23;20022;-89
2023/03/02 05:41:29;;;;;;;25.38;17.00;;;;;;;;;;6069091;23;20037;-90
2023/03/02 05:43:57;;;;;;;24.52;17.30;;;;;;;;;;6067889;23;20022;-90
2023/03/02 05:46:26;;;;;;;24.20;16.42;;;;;;;;;;6093337;23;20026;-90
2023/03/02 05:48:54;;;;;;;27.52;16.52;;;;;;;;;;6068777;23;20022;-90
2023/03/02 05:51:21;;;;;;;27.13;16.20;;;;;;;;;;6067068;23;20018;-91
2023/03/02 05:53:48;;;;;;;20.10;16.20;;;;;;;;;;6068489;23;20343;-90
2023/03/02 05:56:19;;;;;;;20.30;15.88;;;;;;;;;;6066712;23;20497;-90
2023/03/02 05:58:46;;;;;;;26.25;17.02;;;;;;;;;;6043028;23;20034;-90
2023/03/02 06:01:13;;;;;;;22.90;15.88;;;;;;;;;;6065878;23;20021;-90
2023/03/02 06:03:43;;;;;;;23.00;14.93;;;;;;;;;;6068629;23;20339;-90
2023/03/02 06:06:12;;;;;;;23.50;15.90;;;;;;;;;;6092192;23;20023;-90
2023/03/02 06:08:42;;;;;;;25.13;14.02;;;;;;;;;;6091607;23;20014;-90
2023/03/02 06:11:10;;;;;;;22.20;16.33;;;;;;;;;;6065783;23;20018;-88
2023/03/02 06:13:38;;;;;;;23.88;17.05;;;;;;;;;;6067888;23;20025;-88
2023/03/02 06:16:06;;;;;;;26.08;16.50;;;;;;;;;;6091430;23;20079;-88
2023/03/02 06:18:34;;;;;;;21.83;14.70;;;;;;;;;;6067849;23;20026;-88
2023/03/02 06:21:03;;;;;;;26.77;17.67;;;;;;;;;;6067052;23;20021;-88
2023/03/02 06:23:31;;;;;;;28.20;17.25;;;;;;;;;;6091849;23;20015;-89
2023/03/02 06:26:12;;;;;;;21.40;16.58;;;;;;;;;;6067034;23;20029;-89
2023/03/02 06:28:40;;;;;;;19.98;16.90;;;;;;;;;;6091430;23;20373;-88
2023/03/02 06:31:12;;;;;;;23.88;15.88;;;;;;;;;;6091207;23;20044;-88
2023/03/02 06:33:39;;;;;;;24.20;16.42;;;;;;;;;;6067045;23;20335;-89
2023/03/02 06:36:11;;;;;;;25.17;15.48;;;;;;;;;;6066302;23;20025;-91
2023/03/02 06:38:38;;;;;;;22.30;14.43;;;;;;;;;;6068942;23;20014;-89
2023/03/02 06:41:06;;;;;;;27.25;15.48;;;;;;;;;;6069753;23;20022;-89
2023/03/02 06:43:33;;;;;;;24.70;15.45;;;;;;;;;;6093117;23;20504;-89
2023/03/02 06:46:00;;;;;;;24.08;15.45;;;;;;;;;;6068914;23;20021;-89
2023/03/02 06:48:31;;;;;;;24.10;16.15;;;;;;;;;;6066369;23;20026;-91
2023/03/02 06:51:01;;;;;;;25.27;18.10;;;;;;;;;;6068554;23;20026;-89
2023/03/02 06:53:30;;;;;;;19.58;15.52;;;;;;;;;;6092459;23;20482;-88
2023/03/02 06:55:58;;;;;;;24.67;15.60;;;;;;;;;;6067002;23;20019;-89
2023/03/02 06:58:27;;;;;;;23.73;16.15;;;;;;;;;;6068153;23;20022;-89
2023/03/02 07:00:57;;;;;;;18.40;14.20;;;;;;;;;;6070452;23;20018;-89
2023/03/02 07:03:25;;;;;;;23.42;16.60;;;;;;;;;;6069023;23;20022;-89
2023/03/02 07:05:52;;;;;;;26.75;18.23;;;;;;;;;;6070442;23;20015;-89
2023/03/02 07:08:20;;;;;;;22.70;14.05;;;;;;;;;;6093590;23;20371;-89
2023/03/02 07:10:49;;;;;;;23.23;13.55;;;;;;;;;;6069325;23;20484;-89
2023/03/02 07:13:16;;;;;;;20.05;15.82;;;;;;;;;;6069005;23;20018;-89
2023/03/02 07:15:43;;;;;;;21.67;15.10;;;;;;;;;;6070168;23;20064;-90
2023/03/02 07:18:11;;;;;;;19.50;13.73;;;;;;;;;;6093759;23;20026;-89
2023/03/02 07:20:38;;;;;;;22.83;14.95;;;;;;;;;;6047683;23;20025;-90
2023/03/02 07:23:08;;;;;;;19.13;14.30;;;;;;;;;;6069981;23;20026;-91
2023/03/02 07:25:35;;;;;;;17.45;15.05;;;;;;;;;;6069959;23;20022;-90
2023/03/02 07:28:04;;;;;;;24.48;14.60;;;;;;;;;;6069680;23;20026;-89
2023/03/02 07:30:32;;;;;;;19.48;15.48;;;;;;;;;;6069436;23;20018;-90
2023/03/02 07:33:01;;;;;;;23.30;15.15;;;;;;;;;;6069483;23;20015;-90
2023/03/02 07:35:34;;;;;;;18.25;12.07;;;;;;;;;;6070468;23;20026;-90
2023/03/02 07:38:01;;;;;;;17.42;13.75;;;;;;;;;;6071925;23;20022;-90
2023/03/02 07:40:28;;;;;;;22.10;14.93;;;;;;;;;;6070048;23;20025;-89
2023/03/02 07:42:56;;;;;;;21.05;16.88;;;;;;;;;;6069865;23;20023;-91
2023/03/02 07:45:27;;;;;;;23.00;15.55;;;;;;;;;;6069440;23;20022;-91
2023/03/02 07:47:55;;;;;;;22.25;14.13;;;;;;;;;;6069587;23;20041;-91
2023/03/02 07:50:22;;;;;;;22.92;15.15;;;;;;;;;;6069850;23;20019;-91
2023/03/02 07:52:50;;;;;;;23.05;12.93;;;;;;;;;;6093720;23;20018;-90
2023/03/02 07:55:17;;;;;;;23.33;13.85;;;;;;;;;;6068931;23;20443;-91
2023/03/02 07:57:47;;;;;;;20.65;13.18;;;;;;;;;;6069759;23;20045;-90
2023/03/02 08:00:15;;;;;;;22.17;14.68;;;;;;;;;;6070297;23;20506;-91
2023/03/02 08:02:44;;;;;;;22.42;14.13;;;;;;;;;;6093152;23;20018;-91
2023/03/02 08:05:12;;;;;;;18.65;14.32;;;;;;;;;;6070070;23;20019;-90
2023/03/02 08:07:39;;;;;;;18.92;15.10;;;;;;;;;;6069542;23;20023;-90
2023/03/02 08:10:11;;;;;;;18.33;13.43;;;;;;;;;;6070218;23;20031;-91
2023/03/02 08:12:38;;;;;;;20.33;13.93;;;;;;;;;;6104033;23;20018;-90
2023/03/02 08:15:10;;;;;;;19.27;12.93;;;;;;;;;;6070055;23;20022;-90
2023/03/02 08:17:37;;;;;;;19.45;13.07;;;;;;;;;;6069467;23;20018;-91
2023/03/02 08:20:09;;;;;;;26.90;13.40;;;;;;;;;;6093588;23;20026;-91
2023/03/02 08:22:36;;;;;;;16.58;13.52;;;;;;;;;;6089903;23;20018;-90
2023/03/02 08:25:06;;;;;;;19.80;13.05;;;;;;;;;;6092226;23;20034;-90
2023/03/02 08:27:39;;;;;;;;;;;;;;;;;;6093269;23;20030;-91
2023/03/02 08:30:09;;;;;;;17.27;13.88;;;;;;;;;;6068777;23;19924;-90
2023/03/02 08:32:37;;;;;;;22.15;15.73;;;;;;;;;;6069484;23;20018;-90
2023/03/02 08:35:07;;;;;;;16.92;12.75;;;;;;;;;;6090928;23;20018;-90
2023/03/02 08:37:34;;;;;;;21.40;12.20;;;;;;;;;;6065926;23;20021;-90
2023/03/02 08:40:02;;;;;;;22.27;14.23;;;;;;;;;;6068447;23;20025;-90
2023/03/02 08:42:32;;;;;;;16.75;11.48;;;;;;;;;;6068668;23;20018;-91
2023/03/02 08:45:02;;;;;;;16.75;13.85;;;;;;;;;;6067787;23;20018;-91
2023/03/02 08:47:30;;;;;;;24.50;14.05;;;;;;;;;;6067206;23;20379;-90
2023/03/02 08:49:58;;;;;;;16.25;12.13;;;;;;;;;;6067742;23;20039;-90
2023/03/02 08:52:27;;;;;;;19.05;12.90;;;;;;;;;;6067549;23;20021;-90
2023/03/02 08:54:55;;;;;;;20.55;12.73;;;;;;;;;;6067543;23;20029;-90
2023/03/02 08:57:22;;;;;;;18.65;12.73;;;;;;;;;;6092793;23;20018;-90
2023/03/02 08:59:52;;;;;;;18.23;12.40;;;;;;;;;;6069548;23;20025;-90
2023/03/02 09:02:23;;;;;;;16.63;12.75;;;;;;;;;;6068026;23;20018;-90
2023/03/02 09:04:50;;;;;;;21.42;12.68;;;;;;;;;;6067156;23;20034;-91
2023/03/02 09:07:18;;;;;;;19.27;12.30;;;;;;;;;;6091967;23;20025;-90
2023/03/02 09:09:47;;;;;;;18.80;12.93;;;;;;;;;;6068821;23;20029;-91
2023/03/02 09:12:16;;;;;;;16.05;11.38;;;;;;;;;;6069099;23;20014;-90
2023/03/02 09:14:44;;;;;;;17.13;11.95;;;;;;;;;;6068488;23;20040;-91
2023/03/02 09:17:14;;;;;;;15.65;12.38;;;;;;;;;;6067054;23;20025;-91
2023/03/02 09:19:41;;;;;;;16.90;12.38;;;;;;;;;;6066982;23;20021;-90
2023/03/02 09:22:09;;;;;;;18.40;12.27;;;;;;;;;;6091849;23;20022;-90
2023/03/02 09:24:36;;;;;;;15.77;11.30;;;;;;;;;;6068504;23;20063;-91
2023/03/02 09:27:06;;;;;;;18.52;11.35;;;;;;;;;;6068517;23;20014;-91
2023/03/02 09:29:33;;;;;;;15.13;10.32;;;;;;;;;;6068844;23;20473;-91
2023/03/02 09:32:01;;;;;;;16.02;11.00;;;;;;;;;;6068878;23;20014;-92
2023/03/02 09:34:28;;;;;;;16.35;11.35;;;;;;;;;;6069241;23;20018;-92
2023/03/02 09:36:56;;;;;;;17.00;9.82;;;;;;;;;;6091058;23;20481;-91
2023/03/02 09:39:23;;;;;;;25.27;11.52;;;;;;;;;;6068706;23;20031;-91
2023/03/02 09:42:19;;;;;;;13.23;10.07;;;;;;;;;;6068095;23;20018;-91
2023/03/02 09:45:02;;;;;;;16.55;11.10;;;;;;;;;;6068070;23;20022;-92
2023/03/02 09:47:36;;;;;;;16.67;11.02;;;;;;;;;;6068453;23;20478;-91
2023/03/02 09:50:15;;;;;;;17.08;10.88;;;;;;;;;;6068614;23;20018;-91
2023/03/02 09:52:51;;;;;;;12.57;10.10;;;;;;;;;;6067648;23;20022;-91
2023/03/02 09:55:20;;;;;;;17.48;11.13;;;;;;;;;;6069177;23;20037;-91
2023/03/02 09:57:49;;;;;;;19.63;11.68;;;;;;;;;;6067392;23;20015;-90
2023/03/02 10:00:22;;;;;;;14.07;10.43;;;;;;;;;;6068330;23;20023;-91
2023/03/02 10:02:51;;;;;;;14.32;9.23;;;;;;;;;;6067181;23;20424;-91
2023/03/02 10:05:21;;;;;;;19.33;9.50;;;;;;;;;;6068807;23;20019;-91
2023/03/02 10:07:48;;;;;;;18.25;11.00;;;;;;;;;;6068310;23;20023;-90
2023/03/02 10:10:25;;;;;;;11.82;8.70;;;;;;;;;;6067843;23;20069;-92
2023/03/02 10:13:03;;;;;;;15.50;9.20;;;;;;;;;;6068387;23;20014;-91
2023/03/02 10:15:36;;;;;;;12.55;9.38;;;;;;;;;;6068152;23;20381;-91
2023/03/02 10:18:13;;;;;;;11.05;8.25;;;;;;;;;;6092290;23;20026;-90
2023/03/02 10:20:49;;;;;;;12.40;8.98;;;;;;;;;;6090221;23;20022;-90
2023/03/02 10:23:28;;;;;;;13.85;10.43;;;;;;;;;;6091643;23;20027;-90
2023/03/02 10:26:01;;;;;;;11.90;9.25;;;;;;;;;;6066039;23;20015;-91
2023/03/02 10:28:33;;;;;;;12.20;8.88;;;;;;;;;;6067696;23;20014;-91
2023/03/02 10:31:09;;;;;;;17.02;9.95;;;;;;;;;;6067642;23;20026;-91
2023/03/02 10:33:37;;;;;;;18.45;10.20;;;;;;;;;;6092071;23;20025;-91
2023/03/02 10:36:07;;;;;;;13.60;9.20;;;;;;;;;;6067965;23;20018;-90
2023/03/02 10:38:37;;;;;;;16.70;9.38;;;;;;;;;;6066802;23;20056;-90
2023/03/02 10:41:07;;;;;;;14.30;9.23;;;;;;;;;;6090850;23;20042;-91
2023/03/02 10:43:44;;;;;;;13.97;8.83;;;;;;;;;;6092140;23;20018;-91
2023/03/02 10:46:14;;;;;;;15.60;9.13;;;;;;;;;;6067076;23;20254;-91
2023/03/02 10:48:48;;;;;;;15.40;9.73;;;;;;;;;;6068641;23;20474;-91
2023/03/02 10:51:24;;;;;;;13.32;9.85;;;;;;;;;;6066496;23;20030;-91
2023/03/02 10:54:04;;;;;;;12.13;8.45;;;;;;;;;;6068387;23;20033;-91
2023/03/02 10:56:32;;;;;;;12.43;8.55;;;;;;;;;;6043966;23;20022;-89
2023/03/02 11:03:25;;;;;;;15.38;10.82;;;;;;;;;;6013638;23;20049;-91
2023/03/02 11:05:53;;;;;;;12.15;8.60;;;;;;;;;;6068425;23;20351;-92
2023/03/02 11:08:23;;;;;;;16.00;8.68;;;;;;;;;;6069304;23;20014;-91
2023/03/02 11:10:54;;;;;;;12.85;8.70;;;;;;;;;;6067797;23;20026;-91
2023/03/02 11:13:27;;;;;;;13.13;9.10;;;;;;;;;;6066610;23;20389;-91
2023/03/02 11:15:58;;;;;;;15.13;10.43;;;;;;;;;;6067923;23;20482;-91
2023/03/02 11:18:30;;;;;;;14.30;8.27;;;;;;;;;;6068248;23;20025;-90
2023/03/02 11:21:01;;;;;;;12.95;9.00;;;;;;;;;;6066957;23;20018;-91
2023/03/02 11:23:35;;;;;;;15.77;9.60;;;;;;;;;;6066727;23;20026;-91
2023/03/02 11:26:07;;;;;;;13.70;9.18;;;;;;;;;;6068807;23;20591;-91
2023/03/02 11:28:43;;;;;;;11.95;10.70;;;;;;;;;;6067349;23;20022;-91
2023/03/02 11:31:15;;;;;;;13.30;10.27;;;;;;;;;;6066753;23;20026;-91
2023/03/02 11:34:07;;;;;;;11.52;10.13;;;;;;;;;;6066660;23;20018;-92
2023/03/02 11:36:42;;;;;;;15.50;10.73;;;;;;;;;;6066985;23;20018;-91
2023/03/02 11:39:15;;;;;;;12.07;9.48;;;;;;;;;;6090632;23;20466;-92
2023/03/02 11:41:43;;;;;;;14.57;9.55;;;;;;;;;;6068735;23;20014;-92
2023/03/02 11:44:14;;;;;;;11.18;7.85;;;;;;;;;;6067409;23;20018;-91
2023/03/02 11:46:45;;;;;;;18.60;9.50;;;;;;;;;;6092757;23;20455;-90
2023/03/02 11:49:19;;;;;;;14.05;8.90;;;;;;;;;;6089135;23;20018;-91
2023/03/02 11:51:54;;;;;;;17.40;9.30;;;;;;;;;;6092137;23;20014;-92
2023/03/02 11:54:32;;;;;;;12.35;8.93;;;;;;;;;;6092889;23;20018;-92
2023/03/02 11:57:00;;;;;;;14.25;9.60;;;;;;;;;;6069485;23;20019;-91
2023/03/02 11:59:28;;;;;;;18.75;9.27;;;;;;;;;;6069820;23;20018;-91
2023/03/02 12:01:58;;;;;;;14.73;8.43;;;;;;;;;;6068405;23;20390;-92
2023/03/02 12:04:31;;;;;;;13.93;8.70;;;;;;;;;;6069037;23;20030;-91
2023/03/02 12:06:59;;;;;;;12.75;9.80;;;;;;;;;;6067868;23;20030;-91
2023/03/02 12:09:34;;;;;;;14.73;9.70;;;;;;;;;;6070791;23;20519;-91
2023/03/02 12:12:19;;;;;;;11.70;9.82;;;;;;;;;;6069393;23;20025;-90
2023/03/02 12:14:47;;;;;;;12.73;8.65;;;;;;;;;;6070409;23;20019;-91
2023/03/02 12:17:21;;;;;;;14.85;9.02;;;;;;;;;;6070969;23;20025;-90
2023/03/02 12:19:55;;;;;;;12.77;9.27;;;;;;;;;;6072179;23;20022;-91
2023/03/02 12:22:27;;;;;;;15.23;8.85;;;;;;;;;;6071743;23;20031;-90
2023/03/02 12:25:02;;;;;;;15.07;9.30;;;;;;;;;;6069685;23;20029;-90
2023/03/02 12:27:36;;;;;;;15.98;8.65;;;;;;;;;;6070855;23;20014;-91
2023/03/02 12:30:25;;;;;;;14.48;8.35;;;;;;;;;;6094823;23;20033;-91
2023/03/02 12:33:01;;;;;;;13.07;8.65;;;;;;;;;;6072201;23;20032;-90
2023/03/02 12:35:34;;;;;;;14.95;9.68;;;;;;;;;;6072079;23;20030;-90
2023/03/02 12:38:03;;;;;;;12.50;9.20;;;;;;;;;;6096376;23;20485;-91
2023/03/02 12:40:48;;;;;;;17.38;9.43;;;;;;;;;;6070701;23;20015;-91
2023/03/02 12:43:27;;;;;;;13.45;8.73;;;;;;;;;;6104421;23;20014;-90
2023/03/02 12:46:19;;;;;;;17.27;10.25;;;;;;;;;;6071214;23;20025;-90
2023/03/02 12:48:57;;;;;;;14.55;9.35;;;;;;;;;;6069974;23;20478;-90
2023/03/02 12:51:28;;;;;;;11.07;8.13;;;;;;;;;;6070948;23;20040;-90
2023/03/02 12:54:03;;;;;;;16.70;9.32;;;;;;;;;;6070957;23;20505;-90
2023/03/02 12:56:30;;;;;;;13.63;9.00;;;;;;;;;;6095824;23;20022;-90
2023/03/02 12:58:58;;;;;;;15.60;9.23;;;;;;;;;;6096614;23;20019;-91
2023/03/02 13:01:30;;;;;;;14.45;8.73;;;;;;;;;;6080060;23;20026;-91
2023/03/02 13:03:58;;;;;;;12.77;8.35;;;;;;;;;;6123486;23;20066;-91
2023/03/02 13:06:31;;;;;;;15.32;8.93;;;;;;;;;;6098127;23;20070;-90
2023/03/02 13:08:59;;;;;;;14.27;8.93;;;;;;;;;;6098924;23;20058;-91
2023/03/02 13:11:29;;;;;;;12.85;9.73;;;;;;;;;;6123255;23;20054;-91
2023/03/02 13:13:58;;;;;;;14.75;9.00;;;;;;;;;;6090236;23;20022;-90
2023/03/02 13:16:30;;;;;;;13.50;9.15;;;;;;;;;;6069632;23;20037;-89
2023/03/02 13:18:59;;;;;;;15.32;8.48;;;;;;;;;;6069600;23;20022;-90
2023/03/02 13:21:32;;;;;;;13.80;8.23;;;;;;;;;;6067656;23;20026;-90
2023/03/02 13:24:00;;;;;;;16.48;8.60;;;;;;;;;;6068689;23;20021;-91
2023/03/02 13:26:29;;;;;;;16.38;8.70;;;;;;;;;;6093672;23;20374;-90
2023/03/02 13:29:03;;;;;;;13.55;8.68;;;;;;;;;;6100379;23;20010;-90
2023/03/02 13:31:34;;;;;;;16.75;9.18;;;;;;;;;;6133081;23;20070;-90
2023/03/02 13:34:01;;;;;;;12.35;7.35;;;;;;;;;;6116994;23;20473;-90
2023/03/02 13:36:34;;;;;;;13.95;9.18;;;;;;;;;;6109523;23;20010;-90
2023/03/02 13:39:03;;;;;;;12.48;8.20;;;;;;;;;;6073993;23;20466;-91
2023/03/02 13:41:32;;;;;;;11.32;7.75;;;;;;;;;;6093337;23;20022;-90
2023/03/02 13:44:11;;;;;;;14.85;8.48;;;;;;;;;;6069243;23;20018;-90
2023/03/02 13:46:39;;;;;;;14.02;9.60;;;;;;;;;;6092596;23;20018;-90
2023/03/02 13:49:08;;;;;;;15.10;9.40;;;;;;;;;;6069037;23;20018;-91
2023/03/02 13:51:39;;;;;;;13.88;8.30;;;;;;;;;;6068824;23;20019;-90
2023/03/02 13:54:13;;;;;;;13.35;8.82;;;;;;;;;;6068885;23;20025;-91
2023/03/02 13:56:42;;;;;;;13.52;8.23;;;;;;;;;;6092539;23;20500;-91
2023/03/02 13:59:11;;;;;;;13.20;9.40;;;;;;;;;;6068946;23;20019;-91
2023/03/02 14:01:40;;;;;;;12.82;8.70;;;;;;;;;;6068830;23;20077;-90
2023/03/02 14:04:10;;;;;;;16.65;9.20;;;;;;;;;;6068946;23;20018;-90
2023/03/02 14:06:39;;;;;;;9.48;7.47;;;;;;;;;;6067534;23;20482;-90
2023/03/02 14:09:06;;;;;;;13.88;9.10;;;;;;;;;;6069078;23;20069;-90
2023/03/02 14:11:37;;;;;;;11.90;8.07;;;;;;;;;;6068055;23;20041;-89
2023/03/02 14:14:05;;;;;;;14.48;9.10;;;;;;;;;;6067859;23;20030;-90
2023/03/02 14:16:34;;;;;;;12.88;8.70;;;;;;;;;;6093319;23;20019;-91
2023/03/02 14:19:03;;;;;;;13.43;7.65;;;;;;;;;;6090712;23;20111;-91
2023/03/02 14:21:34;;;;;;;16.02;9.02;;;;;;;;;;6068710;23;20037;-91
2023/03/02 14:24:03;;;;;;;11.00;8.45;;;;;;;;;;6070927;23;20019;-90
2023/03/02 14:26:32;;;;;;;14.45;8.68;;;;;;;;;;6068494;23;20029;-90
2023/03/02 14:29:06;;;;;;;12.40;8.60;;;;;;;;;;6069586;23;20018;-90
2023/03/02 14:31:36;;;;;;;12.93;9.15;;;;;;;;;;6070519;23;20473;-90
2023/03/02 14:34:03;;;;;;;16.13;9.50;;;;;;;;;;6070619;23;20494;-90
2023/03/02 14:36:33;;;;;;;12.93;8.40;;;;;;;;;;6069077;23;20022;-91
2023/03/02 14:39:04;;;;;;;14.52;8.25;;;;;;;;;;6069034;23;20601;-91
2023/03/02 14:41:32;;;;;;;12.15;8.00;;;;;;;;;;6068775;23;20019;-91
2023/03/02 14:43:59;;;;;;;13.77;8.55;;;;;;;;;;6068224;23;20026;-91